Time;durP1;ratioP1;P1;durP2;ratioP2;P2;SDS_P1;SDS_P2;PMS_P1;PMS_P2;Temp;Humidity;BMP_temperature;BMP_pressure;BME280_temperature;BME280_humidity;BME280_pressure;Samples;Min_cycle;Max_cycle;Signal;HPM_P1;HPM_P2
2023/07/09 00:00:15;;;;;;;5.93;3.55;;;17.60;99.90;;;;;;5020320;28;20415;-40
2023/07/09 00:02:41;;;;;;;5.50;3.47;;;17.50;99.90;;;;;;5017689;28;20044;-31
2023/07/09 00:05:11;;;;;;;4.78;3.45;;;17.50;99.90;;;;;;5022239;28;20030;-31
2023/07/09 00:07:37;;;;;;;5.15;3.22;;;17.40;99.90;;;;;;5021659;28;20029;-30
2023/07/09 00:10:03;;;;;;;3.47;2.80;;;17.30;99.90;;;;;;5022007;28;20487;-31
2023/07/09 00:12:28;;;;;;;5.22;3.45;;;17.20;99.90;;;;;;5019627;28;20024;-34
2023/07/09 00:14:54;;;;;;;5.57;3.35;;;17.30;99.90;;;;;;5022499;28;20043;-30
2023/07/09 00:17:28;;;;;;;5.22;3.45;;;17.30;99.90;;;;;;5021532;28;20375;-30
2023/07/09 00:19:54;;;;;;;5.03;3.80;;;17.20;99.90;;;;;;5028577;28;20025;-32
2023/07/09 00:22:20;;;;;;;5.20;3.78;;;17.20;99.90;;;;;;5025448;28;20839;-30
2023/07/09 00:24:51;;;;;;;5.20;3.60;;;17.30;99.90;;;;;;5028962;28;20038;-37
2023/07/09 00:27:20;;;;;;;3.90;3.22;;;16.90;99.90;;;;;;5026453;28;20072;-31
2023/07/09 00:29:45;;;;;;;6.47;3.55;;;16.70;99.90;;;;;;5028028;28;20709;-36
2023/07/09 00:32:17;;;;;;;5.63;3.58;;;16.60;99.90;;;;;;5018928;28;20038;-33
2023/07/09 00:34:48;;;;;;;4.82;3.30;;;16.80;99.90;;;;;;5025480;28;20084;-31
2023/07/09 00:37:17;;;;;;;4.35;3.25;;;16.70;99.90;;;;;;5026746;28;20491;-34
2023/07/09 00:39:44;;;;;;;5.82;4.25;;;16.80;99.90;;;;;;5026868;28;20026;-31
2023/07/09 00:42:21;;;;;;;5.18;3.55;;;16.70;99.90;;;;;;5024178;28;20037;-34
2023/07/09 00:44:51;;;;;;;6.93;3.23;;;16.70;99.90;;;;;;5024307;28;20045;-33
2023/07/09 00:47:42;;;;;;;5.60;3.65;;;16.90;99.90;;;;;;5026353;28;20104;-36
2023/07/09 00:50:41;;;;;;;4.88;3.78;;;17.10;99.90;;;;;;5025191;28;20491;-32
2023/07/09 00:53:22;;;;;;;4.50;3.17;;;17.30;99.90;;;;;;5023227;28;20564;-33
2023/07/09 00:56:01;;;;;;;5.18;3.25;;;17.40;99.90;;;;;;5026758;28;20530;-31
2023/07/09 00:58:28;;;;;;;5.45;3.75;;;17.40;99.90;;;;;;5023481;28;20033;-34
2023/07/09 01:01:02;;;;;;;8.38;4.00;;;17.40;99.90;;;;;;5024285;28;20120;-31
2023/07/09 01:03:35;;;;;;;5.82;3.90;;;17.40;99.90;;;;;;5025772;28;20152;-33
2023/07/09 01:06:01;;;;;;;5.10;3.50;;;17.00;99.90;;;;;;5025313;28;20029;-31
2023/07/09 01:08:30;;;;;;;7.78;4.30;;;16.70;99.90;;;;;;5025346;28;20999;-32
2023/07/09 01:10:57;;;;;;;6.95;4.32;;;16.60;99.90;;;;;;5022622;28;20399;-41
2023/07/09 01:13:26;;;;;;;5.65;4.10;;;16.40;99.90;;;;;;5022423;28;20028;-36
2023/07/09 01:15:51;;;;;;;5.57;3.90;;;16.20;99.90;;;;;;5020305;28;20494;-40
2023/07/09 01:18:17;;;;;;;5.22;4.20;;;15.80;99.90;;;;;;5023023;28;20116;-40
2023/07/09 01:20:43;;;;;;;5.22;3.78;;;15.80;99.90;;;;;;5019259;28;20021;-42
2023/07/09 01:23:09;;;;;;;5.22;3.47;;;15.70;99.90;;;;;;5022535;28;20398;-40
2023/07/09 01:25:46;;;;;;;6.35;4.05;;;15.60;99.90;;;;;;5019667;28;20573;-40
2023/07/09 01:28:11;;;;;;;5.47;3.75;;;15.70;99.90;;;;;;5002801;28;20075;-42
2023/07/09 01:30:40;;;;;;;4.93;3.88;;;15.70;99.90;;;;;;5022994;28;20029;-42
2023/07/09 01:33:06;;;;;;;7.82;3.95;;;15.90;99.90;;;;;;5021171;28;20446;-42
2023/07/09 01:35:34;;;;;;;6.78;4.50;;;15.80;99.90;;;;;;5023300;28;20037;-42
2023/07/09 01:38:01;;;;;;;6.15;3.42;;;15.60;99.90;;;;;;5019780;28;20389;-42
2023/07/09 01:40:27;;;;;;;7.43;4.15;;;15.70;99.90;;;;;;5021164;28;20052;-40
2023/07/09 01:42:55;;;;;;;6.07;4.03;;;15.80;99.90;;;;;;5022736;28;20037;-30
2023/07/09 01:45:21;;;;;;;7.03;4.30;;;15.90;99.90;;;;;;5024160;28;20486;-30
2023/07/09 01:47:49;;;;;;;4.95;3.65;;;16.00;99.90;;;;;;5024671;28;20029;-30
2023/07/09 01:50:16;;;;;;;5.82;3.80;;;16.20;99.90;;;;;;5024502;28;20025;-30
2023/07/09 01:52:44;;;;;;;5.28;3.70;;;16.30;99.90;;;;;;5020001;28;20071;-30
2023/07/09 01:55:11;;;;;;;4.65;3.72;;;16.30;99.90;;;;;;5026779;28;20604;-30
2023/07/09 01:57:37;;;;;;;8.80;4.05;;;16.40;99.90;;;;;;5027167;28;20025;-34
2023/07/09 02:00:10;;;;;;;5.90;4.05;;;16.60;99.90;;;;;;5027174;28;20458;-31
2023/07/09 02:02:38;;;;;;;6.63;3.58;;;16.60;99.90;;;;;;5026238;28;20131;-31
2023/07/09 02:05:05;;;;;;;9.25;3.65;;;16.60;99.90;;;;;;5025954;28;20033;-31
2023/07/09 02:07:31;;;;;;;4.28;3.42;;;16.60;99.90;;;;;;5024179;28;20486;-32
2023/07/09 02:09:58;;;;;;;6.90;4.03;;;16.40;99.90;;;;;;5026323;28;20034;-32
2023/07/09 02:12:24;;;;;;;5.38;3.75;;;16.30;99.90;;;;;;5025360;28;20082;-33
2023/07/09 02:14:50;;;;;;;4.50;3.33;;;16.20;99.90;;;;;;5026383;28;20045;-34
2023/07/09 02:17:16;;;;;;;6.35;3.85;;;16.10;99.90;;;;;;5025304;28;20034;-31
2023/07/09 02:19:42;;;;;;;6.50;3.47;;;15.90;99.90;;;;;;5022555;28;20057;-30
2023/07/09 02:22:08;;;;;;;5.75;4.22;;;15.90;99.90;;;;;;5020520;28;20112;-43
2023/07/09 02:24:34;;;;;;;5.20;3.75;;;15.80;99.90;;;;;;5024283;28;20036;-42
2023/07/09 02:27:02;;;;;;;6.05;3.67;;;15.80;99.90;;;;;;5022618;28;20029;-43
2023/07/09 02:29:28;;;;;;;5.25;3.55;;;15.80;99.90;;;;;;5020950;28;20029;-42
2023/07/09 02:31:56;;;;;;;6.88;3.63;;;15.50;99.90;;;;;;5019437;28;20065;-42
2023/07/09 02:34:25;;;;;;;5.47;3.20;;;15.30;99.90;;;;;;5022131;28;20037;-39
2023/07/09 02:36:54;;;;;;;6.13;3.58;;;15.40;99.90;;;;;;5018961;28;20046;-39
2023/07/09 02:39:21;;;;;;;5.47;3.72;;;15.50;99.90;;;;;;5020704;28;20076;-39
2023/07/09 02:41:46;;;;;;;4.57;3.20;;;15.50;99.90;;;;;;5021161;28;20021;-39
2023/07/09 02:44:13;;;;;;;7.38;3.80;;;15.40;99.90;;;;;;5023831;28;20033;-41
2023/07/09 02:46:38;;;;;;;5.43;3.55;;;15.30;99.90;;;;;;5018328;28;20018;-42
2023/07/09 02:49:06;;;;;;;5.03;3.90;;;15.40;99.90;;;;;;5023021;28;20083;-36
2023/07/09 02:51:32;;;;;;;4.35;3.80;;;15.20;99.90;;;;;;5023507;28;20471;-40
2023/07/09 02:54:00;;;;;;;4.72;3.63;;;15.20;99.90;;;;;;5025491;28;20107;-35
2023/07/09 02:56:26;;;;;;;;;;;15.40;99.90;;;;;;5019450;28;20044;-41
2023/07/09 02:58:51;;;;;;;3.95;3.35;;;15.50;99.90;;;;;;5022167;28;19913;-37
2023/07/09 03:01:18;;;;;;;5.28;3.70;;;15.50;99.90;;;;;;5021399;28;20528;-36
2023/07/09 03:03:43;;;;;;;4.72;3.67;;;15.60;99.90;;;;;;5021546;28;20041;-40
2023/07/09 03:06:10;;;;;;;5.45;3.67;;;15.60;99.90;;;;;;5018389;28;20394;-39
2023/07/09 03:08:35;;;;;;;5.75;3.42;;;15.60;99.90;;;;;;5020727;28;20029;-40
2023/07/09 03:11:09;;;;;;;6.03;3.90;;;15.70;99.90;;;;;;5019345;28;20467;-39
2023/07/09 03:13:35;;;;;;;4.15;3.60;;;15.80;99.90;;;;;;5021966;28;20428;-40
2023/07/09 03:16:00;;;;;;;6.53;3.58;;;15.70;99.90;;;;;;5023396;28;20068;-40
2023/07/09 03:18:26;;;;;;;6.68;3.72;;;15.60;99.90;;;;;;5018890;28;20034;-41
2023/07/09 03:20:52;;;;;;;4.63;3.38;;;15.40;99.90;;;;;;5020951;28;20033;-40
2023/07/09 03:23:18;;;;;;;9.07;3.97;;;15.20;99.90;;;;;;5017404;28;20028;-41
2023/07/09 03:25:44;;;;;;;6.20;3.70;;;15.10;99.90;;;;;;5019263;28;20033;-41
2023/07/09 03:28:13;;;;;;;6.43;4.20;;;15.20;99.90;;;;;;5021410;28;20029;-41
2023/07/09 03:30:47;;;;;;;5.00;3.50;;;15.30;99.90;;;;;;5019317;28;20113;-30
2023/07/09 03:33:15;;;;;;;5.38;4.07;;;15.40;99.90;;;;;;5017152;28;20104;-33
2023/07/09 03:35:41;;;;;;;5.15;3.70;;;15.40;99.90;;;;;;5020383;28;20395;-34
2023/07/09 03:38:08;;;;;;;3.92;3.40;;;15.30;99.90;;;;;;5018971;28;20025;-33
2023/07/09 03:40:34;;;;;;;6.65;3.53;;;15.40;99.90;;;;;;5023858;28;20319;-33
2023/07/09 03:42:59;;;;;;;4.75;3.58;;;15.40;99.90;;;;;;5021023;28;20107;-35
2023/07/09 03:45:25;;;;;;;6.97;3.97;;;15.50;99.90;;;;;;5019616;28;20483;-33
2023/07/09 03:47:51;;;;;;;4.18;3.42;;;15.50;99.90;;;;;;5020452;28;20025;-34
2023/07/09 03:50:17;;;;;;;6.13;3.83;;;15.60;99.90;;;;;;5021668;28;20038;-36
2023/07/09 03:52:43;;;;;;;4.75;3.20;;;15.60;99.90;;;;;;5016752;28;20593;-33
2023/07/09 03:55:09;;;;;;;4.95;3.60;;;15.60;99.90;;;;;;5022522;28;20029;-33
2023/07/09 03:57:35;;;;;;;5.80;3.80;;;15.50;99.90;;;;;;5021464;28;20506;-33
2023/07/09 04:00:03;;;;;;;6.28;3.92;;;15.60;99.90;;;;;;5017609;28;20077;-33
2023/07/09 04:02:28;;;;;;;4.53;3.75;;;15.60;99.90;;;;;;5016267;28;20569;-34
2023/07/09 04:04:54;;;;;;;6.20;3.80;;;15.60;99.90;;;;;;5019966;28;20120;-33
2023/07/09 04:07:20;;;;;;;6.93;3.22;;;15.60;99.90;;;;;;5018327;28;20029;-35
2023/07/09 04:09:45;;;;;;;4.95;3.60;;;15.70;99.90;;;;;;5020890;28;20156;-34
2023/07/09 04:12:11;;;;;;;5.70;3.63;;;15.70;99.90;;;;;;5020125;28;20034;-35
2023/07/09 04:14:37;;;;;;;5.70;3.95;;;15.70;99.90;;;;;;5019612;28;20038;-34
2023/07/09 04:17:02;;;;;;;5.80;3.65;;;15.80;99.90;;;;;;5011177;28;20037;-36
2023/07/09 04:19:28;;;;;;;4.63;3.20;;;15.90;99.90;;;;;;5018445;28;20491;-33
2023/07/09 04:21:54;;;;;;;4.70;3.25;;;16.00;99.90;;;;;;5021703;28;20045;-33
2023/07/09 04:24:20;;;;;;;7.75;4.18;;;16.10;99.90;;;;;;5021650;28;20061;-33
2023/07/09 04:26:46;;;;;;;5.90;3.72;;;16.20;99.90;;;;;;5017991;28;20026;-33
2023/07/09 04:29:12;;;;;;;4.70;3.33;;;16.30;99.90;;;;;;5018909;28;20539;-33
2023/07/09 04:31:39;;;;;;;6.35;3.60;;;16.30;99.90;;;;;;5013824;28;20022;-33
2023/07/09 04:34:05;;;;;;;4.85;3.20;;;16.50;99.90;;;;;;5018963;28;20086;-36
2023/07/09 04:36:31;;;;;;;5.70;3.58;;;16.50;99.90;;;;;;5022307;28;20116;-33
2023/07/09 04:38:57;;;;;;;4.88;3.53;;;16.60;99.90;;;;;;5020182;28;20084;-35
2023/07/09 04:41:22;;;;;;;5.50;3.78;;;16.70;99.90;;;;;;5019327;28;20514;-43
2023/07/09 04:43:48;;;;;;;4.68;3.65;;;16.70;99.90;;;;;;5016962;28;20160;-43
2023/07/09 04:46:14;;;;;;;7.30;3.72;;;16.70;99.90;;;;;;5004317;28;20034;-43
2023/07/09 04:48:39;;;;;;;4.75;3.58;;;16.70;99.90;;;;;;5019614;28;20036;-43
2023/07/09 04:51:08;;;;;;;5.45;3.67;;;16.90;99.90;;;;;;5022611;28;20381;-39
2023/07/09 04:53:34;;;;;;;5.30;3.58;;;17.00;99.90;;;;;;5019779;28;20219;-43
2023/07/09 04:56:02;;;;;;;6.03;3.55;;;17.10;99.90;;;;;;5022496;28;20558;-39
2023/07/09 04:58:28;;;;;;;5.88;3.88;;;17.20;99.90;;;;;;5018726;28;20116;-42
2023/07/09 05:00:57;;;;;;;4.38;3.50;;;17.30;99.90;;;;;;5014714;28;20136;-43
2023/07/09 05:03:23;;;;;;;4.95;3.70;;;17.40;99.90;;;;;;5025293;28;20025;-42
2023/07/09 05:05:48;;;;;;;6.68;3.45;;;17.50;99.90;;;;;;5024168;28;20037;-42
2023/07/09 05:08:15;;;;;;;5.18;3.70;;;17.60;99.90;;;;;;5025400;28;20029;-42
2023/07/09 05:10:42;;;;;;;4.35;3.45;;;17.70;99.90;;;;;;5021100;28;20029;-40
2023/07/09 05:13:08;;;;;;;5.85;3.70;;;17.70;99.90;;;;;;5020618;28;20044;-42
2023/07/09 05:15:33;;;;;;;6.32;3.80;;;17.90;99.90;;;;;;5020611;28;20057;-43
2023/07/09 05:17:59;;;;;;;5.60;3.92;;;18.00;99.90;;;;;;5022470;28;20548;-42
2023/07/09 05:20:24;;;;;;;4.20;3.65;;;18.00;99.90;;;;;;5024779;28;20060;-43
2023/07/09 05:22:50;;;;;;;4.40;3.53;;;18.00;99.90;;;;;;5026102;28;20041;-35
2023/07/09 05:25:16;;;;;;;6.07;4.65;;;18.10;99.90;;;;;;5021336;28;20162;-40
2023/07/09 05:27:42;;;;;;;5.88;3.55;;;18.10;99.90;;;;;;5021851;28;20112;-42
2023/07/09 05:30:08;;;;;;;4.97;3.70;;;18.00;99.90;;;;;;5018581;28;20033;-42
2023/07/09 05:32:36;;;;;;;7.00;3.92;;;18.20;99.90;;;;;;5020116;28;20041;-42
2023/07/09 05:35:01;;;;;;;5.15;3.97;;;18.50;99.90;;;;;;5026153;28;20037;-42
2023/07/09 05:37:27;;;;;;;5.05;3.63;;;18.70;99.90;;;;;;5023502;28;20121;-41
2023/07/09 05:39:53;;;;;;;5.60;4.20;;;19.00;99.90;;;;;;5020987;28;20022;-42
2023/07/09 05:42:18;;;;;;;7.00;3.95;;;19.10;99.90;;;;;;5022127;28;20029;-43
2023/07/09 05:44:44;;;;;;;5.25;3.85;;;19.20;99.90;;;;;;5020895;28;20042;-38
2023/07/09 05:47:10;;;;;;;4.25;3.65;;;19.30;99.90;;;;;;5022435;28;20021;-43
2023/07/09 05:49:37;;;;;;;8.80;3.90;;;19.60;99.90;;;;;;5024123;28;20048;-40
2023/07/09 05:52:03;;;;;;;5.70;4.03;;;19.70;99.90;;;;;;5022364;28;20022;-40
2023/07/09 05:54:29;;;;;;;5.10;3.45;;;19.80;99.90;;;;;;5005161;28;20079;-41
2023/07/09 05:56:54;;;;;;;5.15;3.85;;;20.00;99.90;;;;;;5018161;28;20048;-43
2023/07/09 05:59:20;;;;;;;5.45;3.90;;;20.20;99.90;;;;;;5017934;28;20076;-43
2023/07/09 06:01:45;;;;;;;6.13;4.30;;;20.40;99.90;;;;;;5021941;28;20033;-39
2023/07/09 06:04:13;;;;;;;5.32;3.30;;;20.60;99.90;;;;;;5023063;28;20510;-42
2023/07/09 06:06:41;;;;;;;6.38;3.92;;;20.80;99.90;;;;;;5020659;28;20032;-39
2023/07/09 06:09:08;;;;;;;6.47;3.47;;;21.10;99.90;;;;;;5022197;28;20049;-41
2023/07/09 06:11:33;;;;;;;6.47;3.88;;;21.10;99.90;;;;;;5020085;28;20029;-40
2023/07/09 06:13:59;;;;;;;4.82;4.10;;;21.30;99.90;;;;;;5017333;28;20487;-40
2023/07/09 06:16:25;;;;;;;5.72;4.10;;;21.40;99.90;;;;;;5020523;28;20042;-43
2023/07/09 06:18:51;;;;;;;8.30;4.53;;;21.50;99.90;;;;;;5020707;28;22004;-40
2023/07/09 06:21:16;;;;;;;5.20;4.00;;;21.50;99.90;;;;;;5025339;28;20021;-43
2023/07/09 06:23:42;;;;;;;7.53;4.00;;;21.60;99.90;;;;;;5022694;28;20380;-43
2023/07/09 06:26:08;;;;;;;5.85;3.70;;;21.70;99.90;;;;;;5020870;28;20025;-42
2023/07/09 06:28:33;;;;;;;5.82;3.67;;;21.80;99.90;;;;;;5017793;28;20060;-43
2023/07/09 06:30:59;;;;;;;5.70;4.50;;;22.00;99.90;;;;;;5021357;28;20037;-41
2023/07/09 06:33:26;;;;;;;4.75;3.25;;;22.30;99.90;;;;;;5022916;28;20056;-43
2023/07/09 06:35:55;;;;;;;5.35;3.85;;;22.40;99.90;;;;;;5025446;28;20037;-43
2023/07/09 06:38:21;;;;;;;4.25;3.47;;;22.50;99.90;;;;;;5022845;28;20037;-43
2023/07/09 06:40:46;;;;;;;5.68;3.97;;;22.80;99.90;;;;;;5020857;28;20446;-36
2023/07/09 06:43:12;;;;;;;4.88;3.63;;;22.90;99.90;;;;;;5015491;28;20113;-43
2023/07/09 06:45:38;;;;;;;5.72;3.42;;;22.80;99.90;;;;;;5022352;28;21565;-36
2023/07/09 06:48:04;;;;;;;5.00;3.35;;;22.90;99.90;;;;;;5022575;28;20420;-42
2023/07/09 06:50:33;;;;;;;6.28;3.45;;;22.90;99.90;;;;;;5022641;28;20029;-43
2023/07/09 06:52:58;;;;;;;4.72;2.90;;;23.20;99.90;;;;;;5021516;28;20033;-42
2023/07/09 06:55:25;;;;;;;3.92;3.05;;;23.40;99.90;;;;;;5005657;28;20044;-41
2023/07/09 06:57:50;;;;;;;6.22;3.45;;;23.50;99.90;;;;;;5020903;28;20796;-42
2023/07/09 07:00:16;;;;;;;5.50;3.05;;;23.60;99.90;;;;;;5018312;28;20049;-43
2023/07/09 07:02:43;;;;;;;4.57;3.08;;;23.80;99.90;;;;;;5020750;28;20096;-36
2023/07/09 07:05:08;;;;;;;5.18;3.10;;;24.00;99.90;;;;;;5021129;28;20060;-42
2023/07/09 07:07:34;;;;;;;5.10;3.00;;;24.10;99.90;;;;;;5023721;28;20080;-42
2023/07/09 07:09:59;;;;;;;5.03;3.28;;;24.50;99.90;;;;;;5020047;28;20120;-43
2023/07/09 07:12:28;;;;;;;4.47;2.90;;;24.60;99.90;;;;;;5018814;28;20145;-40
2023/07/09 07:14:55;;;;;;;3.80;2.80;;;24.80;99.90;;;;;;5018583;28;20040;-42
2023/07/09 07:17:21;;;;;;;4.47;3.30;;;24.80;99.90;;;;;;5022368;28;20044;-42
2023/07/09 07:19:47;;;;;;;3.70;3.08;;;25.00;99.90;;;;;;5021545;28;20198;-39
2023/07/09 07:22:13;;;;;;;5.28;3.20;;;25.20;99.90;;;;;;5023468;28;20507;-40
2023/07/09 07:24:39;;;;;;;5.38;3.13;;;25.40;99.90;;;;;;5021014;28;20382;-42
2023/07/09 07:27:05;;;;;;;4.82;3.13;;;25.40;99.90;;;;;;5017848;28;20387;-37
2023/07/09 07:29:31;;;;;;;3.63;3.10;;;25.60;99.90;;;;;;5019905;28;20022;-39
2023/07/09 07:31:57;;;;;;;4.72;3.45;;;25.60;99.90;;;;;;5017483;28;20164;-41
2023/07/09 07:34:23;;;;;;;4.35;3.42;;;25.90;99.90;;;;;;5024129;28;20036;-42
2023/07/09 07:36:50;;;;;;;6.20;3.47;;;26.10;99.90;;;;;;5024018;28;20025;-41
2023/07/09 07:39:15;;;;;;;3.90;3.47;;;26.30;99.90;;;;;;5020286;28;20044;-39
2023/07/09 07:41:41;;;;;;;4.55;3.03;;;26.60;99.90;;;;;;5021071;28;20033;-39
2023/07/09 07:44:07;;;;;;;5.22;3.30;;;26.80;99.90;;;;;;5021623;28;20068;-37
2023/07/09 07:46:34;;;;;;;3.85;3.15;;;26.90;99.90;;;;;;5019417;28;20047;-38
2023/07/09 07:48:59;;;;;;;4.07;3.05;;;27.10;99.90;;;;;;5024486;28;20029;-40
2023/07/09 07:51:25;;;;;;;6.97;3.53;;;27.20;99.90;;;;;;5020530;28;20499;-38
2023/07/09 07:53:52;;;;;;;5.50;3.35;;;27.40;99.90;;;;;;5020160;28;20029;-41
2023/07/09 07:56:18;;;;;;;5.07;4.07;;;27.60;99.90;;;;;;5018517;28;20392;-40
2023/07/09 07:58:44;;;;;;;5.13;3.20;;;27.80;99.90;;;;;;5023931;28;20029;-40
2023/07/09 08:01:09;;;;;;;5.55;3.20;;;27.70;99.90;;;;;;5017359;28;20037;-42
2023/07/09 08:03:35;;;;;;;4.65;3.30;;;27.80;99.90;;;;;;5023718;28;20056;-41
2023/07/09 08:06:00;;;;;;;4.55;2.75;;;28.10;99.90;;;;;;5021415;28;20483;-42
2023/07/09 08:08:26;;;;;;;5.35;2.70;;;28.20;99.90;;;;;;5018578;28;20034;-41
2023/07/09 08:10:59;;;;;;;5.40;2.80;;;28.40;99.90;;;;;;5021132;28;20506;-41
2023/07/09 08:13:25;;;;;;;5.10;2.75;;;28.40;99.90;;;;;;5015881;28;20040;-39
2023/07/09 08:15:50;;;;;;;4.75;2.78;;;28.60;99.90;;;;;;5020261;28;20696;-38
2023/07/09 08:18:16;;;;;;;4.90;3.13;;;28.70;99.90;;;;;;5020817;28;20029;-41
2023/07/09 08:20:45;;;;;;;4.45;3.13;;;28.70;99.90;;;;;;5020767;28;20561;-42
2023/07/09 08:23:10;;;;;;;4.15;2.80;;;28.80;99.90;;;;;;5006552;28;20040;-40
2023/07/09 08:25:36;;;;;;;3.70;2.67;;;29.00;99.90;;;;;;5019929;28;20034;-40
2023/07/09 08:28:01;;;;;;;4.55;2.97;;;29.30;99.90;;;;;;5015961;28;20475;-42
2023/07/09 08:30:27;;;;;;;4.20;2.85;;;29.30;99.90;;;;;;5019627;28;20029;-40
2023/07/09 08:32:53;;;;;;;3.72;3.13;;;29.20;99.90;;;;;;5019465;28;20018;-42
2023/07/09 08:35:18;;;;;;;4.35;3.30;;;28.90;99.90;;;;;;5024645;28;20040;-39
2023/07/09 08:37:44;;;;;;;5.43;3.05;;;28.80;99.90;;;;;;5023627;28;20065;-42
2023/07/09 08:40:14;;;;;;;5.18;3.03;;;28.60;99.90;;;;;;5023350;28;20037;-42
2023/07/09 08:42:46;;;;;;;4.43;2.92;;;28.60;99.90;;;;;;5028272;28;20045;-41
2023/07/09 08:45:29;;;;;;;4.10;2.95;;;28.70;99.90;;;;;;5023827;28;20033;-40
2023/07/09 08:48:02;;;;;;;3.75;2.97;;;28.70;99.90;;;;;;5005543;28;20059;-41
2023/07/09 08:50:54;;;;;;;4.57;2.50;;;29.10;99.90;;;;;;5024872;28;20498;-42
2023/07/09 08:53:46;;;;;;;4.57;3.13;;;29.10;99.90;;;;;;5024027;28;20026;-39
2023/07/09 08:56:13;;;;;;;3.78;2.88;;;29.30;99.90;;;;;;5023099;28;20045;-40
2023/07/09 08:58:40;;;;;;;3.00;2.63;;;29.60;99.90;;;;;;5021772;28;20124;-41
2023/07/09 09:01:17;;;;;;;4.75;2.55;;;29.80;99.90;;;;;;5006751;28;20049;-41
2023/07/09 09:03:53;;;;;;;3.83;2.72;;;29.90;99.90;;;;;;5026721;28;20029;-41
2023/07/09 09:06:31;;;;;;;2.72;2.25;;;29.90;99.90;;;;;;5025418;28;20029;-42
2023/07/09 09:09:23;;;;;;;4.35;2.65;;;29.70;99.90;;;;;;5023070;28;20034;-41
2023/07/09 09:11:59;;;;;;;3.78;2.20;;;29.80;99.90;;;;;;5021916;28;20092;-41
2023/07/09 09:14:30;;;;;;;3.88;2.58;;;29.60;99.90;;;;;;5022752;28;20029;-41
2023/07/09 09:16:56;;;;;;;3.33;2.50;;;29.60;99.90;;;;;;5025252;28;20067;-41
2023/07/09 09:19:37;;;;;;;6.80;2.53;;;29.30;99.90;;;;;;5023004;28;20025;-41
2023/07/09 09:22:08;;;;;;;4.38;2.45;;;29.50;99.90;;;;;;5020505;28;20041;-32
2023/07/09 09:24:51;;;;;;;2.88;2.13;;;29.60;99.90;;;;;;5003585;28;20029;-34
2023/07/09 09:27:17;;;;;;;4.60;2.28;;;29.60;99.90;;;;;;5021762;28;20034;-32
2023/07/09 09:29:42;;;;;;;3.15;2.20;;;29.70;99.90;;;;;;5022961;28;20067;-32
2023/07/09 09:32:23;;;;;;;2.53;2.03;;;29.60;99.90;;;;;;5020401;28;20045;-36
2023/07/09 09:34:48;;;;;;;4.18;2.20;;;29.50;99.90;;;;;;5005060;28;20025;-34
2023/07/09 09:37:30;;;;;;;3.33;2.22;;;29.80;99.90;;;;;;5023064;28;20072;-38
2023/07/09 09:39:58;;;;;;;2.40;2.17;;;30.00;99.90;;;;;;5019122;28;20042;-33
2023/07/09 09:42:25;;;;;;;;;;;29.90;99.90;;;;;;5025171;28;20025;-32
2023/07/09 09:44:53;;;;;;;3.10;2.00;;;29.90;99.90;;;;;;5019346;28;19961;-34
2023/07/09 09:47:18;;;;;;;3.28;2.20;;;30.20;99.90;;;;;;5017534;28;20311;-37
2023/07/09 09:49:44;;;;;;;4.32;2.10;;;30.30;99.90;;;;;;5023030;28;20033;-33
2023/07/09 09:52:32;;;;;;;3.60;2.20;;;30.00;99.90;;;;;;5004457;28;20118;-32
2023/07/09 09:55:10;;;;;;;3.95;2.00;;;30.00;99.90;;;;;;5021420;28;20293;-33
2023/07/09 09:57:35;;;;;;;3.35;2.17;;;30.70;99.90;;;;;;5022950;28;20130;-33
2023/07/09 10:00:01;;;;;;;3.83;2.08;;;31.50;99.90;;;;;;5018549;28;20518;-37
2023/07/09 10:02:27;;;;;;;3.67;1.98;;;31.50;99.90;;;;;;5023167;28;20850;-33
2023/07/09 10:04:53;;;;;;;3.45;2.38;;;31.90;99.90;;;;;;5023906;28;20044;-35
2023/07/09 10:07:39;;;;;;;3.78;2.40;;;31.40;99.90;;;;;;5020671;28;20033;-33
2023/07/09 10:10:17;;;;;;;8.65;2.35;;;31.50;99.90;;;;;;5021042;28;20384;-32
2023/07/09 10:12:52;;;;;;;3.03;2.28;;;31.00;99.90;;;;;;5020994;28;20123;-35
2023/07/09 10:16:01;;;;;;;3.08;2.17;;;30.70;99.90;;;;;;5018050;28;20112;-35
2023/07/09 10:18:55;;;;;;;3.55;2.33;;;30.60;99.90;;;;;;4973668;28;20041;-33
2023/07/09 10:21:37;;;;;;;4.10;2.15;;;30.60;99.90;;;;;;5024036;28;20026;-36
2023/07/09 10:24:22;;;;;;;3.22;2.42;;;30.50;99.90;;;;;;5021224;28;20036;-35
2023/07/09 10:27:03;;;;;;;3.58;2.30;;;30.60;99.90;;;;;;5005067;28;20507;-33
2023/07/09 10:29:34;;;;;;;3.30;2.60;;;30.90;99.90;;;;;;5026767;28;20025;-32
2023/07/09 10:32:22;;;;;;;4.45;2.83;;;31.20;99.90;;;;;;5022851;28;20091;-31
2023/07/09 10:35:26;;;;;;;6.22;2.20;;;31.10;99.90;;;;;;5026862;28;20053;-31
2023/07/09 10:38:14;;;;;;;3.80;2.47;;;31.30;99.90;;;;;;5021698;28;20037;-34
2023/07/09 10:40:47;;;;;;;2.92;2.20;;;31.30;99.90;;;;;;5022208;28;20021;-33
2023/07/09 10:43:22;;;;;;;3.88;2.05;;;31.20;99.90;;;;;;5018236;28;20034;-30
2023/07/09 10:45:55;;;;;;;4.93;2.55;;;31.50;99.90;;;;;;5021247;28;20029;-31
2023/07/09 10:48:38;;;;;;;3.20;2.13;;;31.40;99.90;;;;;;5025873;28;20036;-32
2023/07/09 10:51:07;;;;;;;2.78;2.40;;;31.50;99.90;;;;;;5023272;28;20029;-31
2023/07/09 10:53:41;;;;;;;3.25;2.30;;;31.50;99.90;;;;;;5021659;28;20140;-31
2023/07/09 10:56:16;;;;;;;5.90;2.78;;;31.50;99.90;;;;;;5020932;28;20414;-31
2023/07/09 10:59:10;;;;;;;3.20;2.28;;;31.50;99.90;;;;;;5021305;28;20821;-32
2023/07/09 11:01:41;;;;;;;2.78;2.50;;;31.20;99.90;;;;;;4995055;28;20807;-34
2023/07/09 11:04:15;;;;;;;4.90;2.42;;;31.10;99.90;;;;;;5004125;28;20030;-33
2023/07/09 11:06:46;;;;;;;6.43;2.55;;;31.10;99.90;;;;;;4997781;28;20055;-34
2023/07/09 11:09:24;;;;;;;3.17;2.50;;;31.30;99.90;;;;;;5004593;28;20404;-31
2023/07/09 11:11:54;;;;;;;2.63;2.33;;;31.40;99.90;;;;;;5003533;28;20105;-34
2023/07/09 11:14:35;;;;;;;3.17;2.30;;;31.70;99.90;;;;;;4995548;28;20105;-33
2023/07/09 11:17:01;;;;;;;3.55;2.40;;;31.80;99.90;;;;;;5001572;28;20041;-32
2023/07/09 11:19:28;;;;;;;3.10;2.28;;;32.20;99.90;;;;;;5003393;28;20041;-31
2023/07/09 11:22:13;;;;;;;3.97;2.30;;;32.70;99.90;;;;;;5008095;28;20153;-30
2023/07/09 11:24:50;;;;;;;3.60;2.38;;;32.60;99.90;;;;;;5002804;28;20120;-31
2023/07/09 11:27:26;;;;;;;4.75;2.67;;;31.90;99.90;;;;;;4999423;28;20467;-31
2023/07/09 11:30:17;;;;;;;3.07;2.43;;;31.60;99.90;;;;;;5001139;28;20392;-38
2023/07/09 11:32:47;;;;;;;3.88;2.50;;;31.50;99.90;;;;;;5004408;28;20029;-30
2023/07/09 11:35:24;;;;;;;6.47;2.88;;;31.60;99.90;;;;;;5004316;28;20030;-31
2023/07/09 11:37:52;;;;;;;5.55;2.40;;;31.60;99.90;;;;;;5006617;28;20042;-31
2023/07/09 11:40:19;;;;;;;3.20;2.63;;;31.50;99.90;;;;;;5003074;28;20092;-31
2023/07/09 11:42:56;;;;;;;5.68;2.45;;;31.50;99.90;;;;;;5002858;28;20033;-32
2023/07/09 11:45:30;;;;;;;4.60;2.83;;;31.70;99.90;;;;;;5002601;28;20034;-31
2023/07/09 11:48:26;;;;;;;4.35;2.75;;;31.90;99.90;;;;;;5004724;28;20042;-31
2023/07/09 11:50:54;;;;;;;4.25;2.53;;;32.10;99.90;;;;;;5003135;28;20033;-31
2023/07/09 11:53:41;;;;;;;3.65;2.42;;;32.30;99.90;;;;;;5003234;28;20026;-30
2023/07/09 11:56:09;;;;;;;3.78;2.45;;;32.50;99.90;;;;;;5002402;28;20039;-31
2023/07/09 11:58:34;;;;;;;3.67;2.30;;;32.40;99.90;;;;;;4993253;28;20042;-31
2023/07/09 12:01:01;;;;;;;4.75;2.53;;;31.70;99.90;;;;;;5015177;28;20091;-32
2023/07/09 12:03:33;;;;;;;4.15;2.30;;;31.60;99.90;;;;;;5024012;28;20033;-31
2023/07/09 12:06:23;;;;;;;3.63;2.20;;;31.80;99.90;;;;;;5019345;28;20383;-31
2023/07/09 12:08:51;;;;;;;3.95;2.38;;;32.00;99.90;;;;;;5019394;28;20060;-30
2023/07/09 12:11:30;;;;;;;4.10;2.30;;;31.90;99.90;;;;;;5028361;28;20029;-42
2023/07/09 12:14:11;;;;;;;2.95;2.10;;;31.90;99.90;;;;;;5020129;28;20033;-39
2023/07/09 12:16:45;;;;;;;3.85;2.67;;;32.20;99.90;;;;;;5022347;28;20124;-41
2023/07/09 12:19:12;;;;;;;5.43;2.70;;;32.00;99.90;;;;;;5023634;28;20056;-40
2023/07/09 12:21:38;;;;;;;;;;;32.40;99.90;;;;;;5020605;28;20072;-39
2023/07/09 12:24:20;;;;;;;5.32;2.65;;;33.00;99.90;;;;;;5024351;28;19915;-41
2023/07/09 12:26:49;;;;;;;3.05;2.30;;;32.20;99.90;;;;;;5021818;28;20038;-42
2023/07/09 12:29:15;;;;;;;3.03;2.60;;;32.00;99.90;;;;;;5025760;28;20025;-39
2023/07/09 12:31:40;;;;;;;3.38;2.42;;;31.90;99.90;;;;;;5024634;28;20610;-39
2023/07/09 12:34:11;;;;;;;3.40;2.20;;;32.40;99.90;;;;;;5019954;28;20049;-41
2023/07/09 12:36:39;;;;;;;4.30;2.40;;;33.10;99.90;;;;;;5025343;28;20028;-41
2023/07/09 12:39:04;;;;;;;3.45;2.30;;;33.20;99.90;;;;;;5024372;28;20033;-41
2023/07/09 12:41:40;;;;;;;3.03;2.35;;;33.20;99.90;;;;;;5002556;28;20026;-41
2023/07/09 12:44:09;;;;;;;3.92;2.58;;;33.10;99.90;;;;;;5025539;28;20402;-41
2023/07/09 12:46:35;;;;;;;3.40;2.40;;;33.10;99.90;;;;;;5021373;28;20040;-42
2023/07/09 12:49:01;;;;;;;3.42;2.40;;;33.20;99.90;;;;;;5022426;28;20480;-40
2023/07/09 12:51:29;;;;;;;3.88;2.58;;;33.30;99.90;;;;;;5024778;28;20046;-41
2023/07/09 12:54:18;;;;;;;5.15;2.60;;;33.10;99.90;;;;;;5025007;28;20116;-42
2023/07/09 12:56:45;;;;;;;3.53;2.38;;;33.60;99.90;;;;;;5024455;28;20036;-41
2023/07/09 12:59:20;;;;;;;5.35;2.75;;;33.70;99.90;;;;;;5023563;28;20113;-38